Time;durP1;ratioP1;P1;durP2;ratioP2;P2;SDS_P1;SDS_P2;PMS_P1;PMS_P2;Temp;Humidity;BMP_temperature;BMP_pressure;BME280_temperature;BME280_humidity;BME280_pressure;Samples;Min_cycle;Max_cycle;Signal;HPM_P1;HPM_P2
2023/07/21 00:01:08;;;;;;;4.93;3.33;;;16.10;99.90;;;;;;4933647;29;20085;-69
2023/07/21 00:03:34;;;;;;;5.40;3.28;;;16.10;99.90;;;;;;4933542;29;20050;-69
2023/07/21 00:06:01;;;;;;;7.55;3.92;;;16.40;99.90;;;;;;4933360;29;20131;-69
2023/07/21 00:08:29;;;;;;;4.63;3.00;;;16.50;99.90;;;;;;4933470;29;20056;-68
2023/07/21 00:10:58;;;;;;;6.78;3.55;;;16.10;99.90;;;;;;4933402;29;20491;-69
2023/07/21 00:13:24;;;;;;;7.45;3.30;;;16.10;99.90;;;;;;4933466;29;20036;-68
2023/07/21 00:15:50;;;;;;;4.03;3.30;;;15.80;99.90;;;;;;4933217;29;20492;-68
2023/07/21 00:18:16;;;;;;;4.57;3.67;;;16.00;99.90;;;;;;4934452;29;20040;-69
2023/07/21 00:20:42;;;;;;;6.32;3.30;;;15.80;99.90;;;;;;4949405;28;20054;-69
2023/07/21 00:23:08;;;;;;;4.90;3.15;;;15.60;99.90;;;;;;4934260;29;20123;-69
2023/07/21 00:25:34;;;;;;;6.40;3.67;;;15.50;99.90;;;;;;4933957;29;20063;-69
2023/07/21 00:27:59;;;;;;;5.30;3.58;;;15.50;99.90;;;;;;4933440;29;20047;-69
2023/07/21 00:30:25;;;;;;;4.20;3.60;;;;;;;;;;4932868;29;20043;-68
2023/07/21 00:32:51;;;;;;;4.57;3.55;;;15.50;99.90;;;;;;4934509;29;20035;-68
2023/07/21 00:35:17;;;;;;;5.18;3.55;;;15.50;99.90;;;;;;4933472;29;20372;-69
2023/07/21 00:37:43;;;;;;;6.85;3.05;;;15.60;99.90;;;;;;4949453;29;20516;-69
2023/07/21 00:40:09;;;;;;;5.75;3.70;;;15.50;99.90;;;;;;4932857;29;20123;-69
2023/07/21 00:42:36;;;;;;;5.05;3.13;;;15.30;99.90;;;;;;4933192;29;20056;-69
2023/07/21 00:45:03;;;;;;;4.63;3.05;;;15.30;99.90;;;;;;4917404;29;20470;-68
2023/07/21 00:47:29;;;;;;;5.75;3.25;;;15.50;99.90;;;;;;4933383;29;20393;-68
2023/07/21 00:49:56;;;;;;;5.97;3.72;;;15.50;99.90;;;;;;4916939;29;20099;-68
2023/07/21 00:52:23;;;;;;;5.55;3.65;;;15.40;99.90;;;;;;4933072;29;20153;-69
2023/07/21 00:54:49;;;;;;;8.43;3.67;;;15.50;99.90;;;;;;4965315;28;20046;-68
2023/07/21 00:57:16;;;;;;;6.32;3.08;;;15.30;99.90;;;;;;4933066;29;20050;-69
2023/07/21 00:59:42;;;;;;;4.57;3.53;;;15.30;99.90;;;;;;4934457;29;20484;-69
2023/07/21 01:02:07;;;;;;;6.22;2.85;;;15.70;99.90;;;;;;4933142;29;20032;-69
2023/07/21 01:04:34;;;;;;;5.72;3.25;;;15.40;99.90;;;;;;4934399;29;20087;-69
2023/07/21 01:07:01;;;;;;;5.93;3.28;;;15.50;99.90;;;;;;4964873;28;20114;-68
2023/07/21 01:09:27;;;;;;;6.90;3.75;;;15.20;99.90;;;;;;4933027;29;20407;-68
2023/07/21 01:11:54;;;;;;;5.97;3.05;;;15.40;99.90;;;;;;4933368;29;20499;-69
2023/07/21 01:14:20;;;;;;;5.88;3.40;;;15.50;99.90;;;;;;4916939;29;20039;-69
2023/07/21 01:16:47;;;;;;;6.78;2.88;;;15.30;99.90;;;;;;4932715;29;20735;-69
2023/07/21 01:19:15;;;;;;;5.13;3.15;;;15.30;99.90;;;;;;4932565;29;20046;-69
2023/07/21 01:21:49;;;;;;;5.95;3.65;;;15.30;99.90;;;;;;4933085;29;20079;-69
2023/07/21 01:24:46;;;;;;;4.28;3.13;;;15.60;99.90;;;;;;4932744;29;20048;-68
2023/07/21 01:27:13;;;;;;;5.43;3.08;;;15.30;99.90;;;;;;4932631;29;20522;-68
2023/07/21 01:29:41;;;;;;;5.20;3.42;;;15.30;99.90;;;;;;4933245;29;20075;-69
2023/07/21 01:32:09;;;;;;;6.05;3.38;;;16.40;99.90;;;;;;4936533;29;20032;-69
2023/07/21 01:34:36;;;;;;;4.72;3.22;;;15.00;99.90;;;;;;4952497;29;20510;-69
2023/07/21 01:37:03;;;;;;;5.25;3.67;;;15.20;99.90;;;;;;4936155;29;20047;-69
2023/07/21 01:39:30;;;;;;;5.40;2.80;;;15.10;99.90;;;;;;4936109;29;20380;-69
2023/07/21 01:41:57;;;;;;;7.43;3.45;;;15.20;99.90;;;;;;4936057;29;20046;-68
2023/07/21 01:44:23;;;;;;;5.03;2.70;;;15.10;99.90;;;;;;4936325;29;20043;-69
2023/07/21 01:46:49;;;;;;;5.78;3.03;;;15.20;99.90;;;;;;4936075;29;20039;-67
2023/07/21 01:49:15;;;;;;;4.93;3.00;;;15.10;99.90;;;;;;4935638;29;20069;-69
2023/07/21 01:51:43;;;;;;;5.85;3.35;;;14.90;99.90;;;;;;4935992;29;20043;-69
2023/07/21 01:54:16;;;;;;;4.88;3.10;;;15.00;99.90;;;;;;4936143;29;20036;-68
2023/07/21 01:56:48;;;;;;;3.55;2.83;;;14.90;99.90;;;;;;4935702;29;20523;-69
2023/07/21 01:59:15;;;;;;;5.07;2.80;;;15.10;99.90;;;;;;4935483;29;20083;-69
2023/07/21 02:01:42;;;;;;;6.22;3.30;;;14.90;99.90;;;;;;4936965;29;20039;-69
2023/07/21 02:04:08;;;;;;;6.35;3.03;;;14.90;99.90;;;;;;4935608;29;20050;-69
2023/07/21 02:06:33;;;;;;;5.13;3.40;;;14.90;99.90;;;;;;4936351;29;20038;-69
2023/07/21 02:08:59;;;;;;;5.22;3.25;;;14.90;99.90;;;;;;4936616;29;20044;-69
2023/07/21 02:11:24;;;;;;;4.15;2.92;;;14.70;99.90;;;;;;4935493;29;20043;-69
2023/07/21 02:13:50;;;;;;;4.00;2.92;;;14.90;99.90;;;;;;4935515;29;20044;-69
2023/07/21 02:16:16;;;;;;;3.85;3.00;;;14.90;99.90;;;;;;4935615;29;20090;-69
2023/07/21 02:18:42;;;;;;;4.93;3.25;;;14.60;99.90;;;;;;4935293;29;20059;-69
2023/07/21 02:21:08;;;;;;;4.25;3.28;;;14.70;99.90;;;;;;4935090;29;20151;-69
2023/07/21 02:23:34;;;;;;;7.65;3.70;;;14.70;99.90;;;;;;4935341;29;20126;-68
2023/07/21 02:26:00;;;;;;;5.38;3.47;;;;;;;;;;4936493;29;20094;-69
2023/07/21 02:28:26;;;;;;;5.25;3.03;;;14.70;99.90;;;;;;4951107;28;20046;-69
2023/07/21 02:31:02;;;;;;;5.03;3.58;;;14.50;99.90;;;;;;4934912;29;20047;-69
2023/07/21 02:33:28;;;;;;;7.30;3.80;;;14.50;99.90;;;;;;4935263;29;20167;-69
2023/07/21 02:35:54;;;;;;;6.00;3.75;;;14.60;99.90;;;;;;4951047;28;20050;-69
2023/07/21 02:38:20;;;;;;;7.53;3.50;;;14.50;99.90;;;;;;4936521;29;20127;-69
2023/07/21 02:40:46;;;;;;;5.88;3.50;;;14.60;99.90;;;;;;4934131;29;20522;-69
2023/07/21 02:43:12;;;;;;;10.18;3.92;;;14.50;99.90;;;;;;4934995;29;20040;-69
2023/07/21 02:45:38;;;;;;;5.93;3.63;;;14.50;99.90;;;;;;4935039;29;20483;-69
2023/07/21 02:48:07;;;;;;;5.88;4.00;;;14.50;99.90;;;;;;4935006;29;20129;-68
2023/07/21 02:50:33;;;;;;;5.63;3.75;;;14.40;99.90;;;;;;4936127;29;20046;-69
2023/07/21 02:52:59;;;;;;;5.35;4.10;;;14.40;99.90;;;;;;4935092;29;20042;-69
2023/07/21 02:55:25;;;;;;;5.68;4.38;;;;;;;;;;4934766;29;20123;-69
2023/07/21 02:57:52;;;;;;;12.65;5.25;;;14.30;99.90;;;;;;4934791;29;20047;-69
2023/07/21 03:00:18;;;;;;;5.75;4.10;;;14.40;99.90;;;;;;4934425;29;20051;-69
2023/07/21 03:02:44;;;;;;;5.55;3.70;;;14.40;99.90;;;;;;4934628;29;20511;-69
2023/07/21 03:05:10;;;;;;;5.72;3.75;;;;;;;;;;4934670;29;20052;-69
2023/07/21 03:07:37;;;;;;;4.10;3.40;;;;;;;;;;4935832;29;20050;-69
2023/07/21 03:10:02;;;;;;;4.70;3.30;;;14.50;99.90;;;;;;4934108;29;20094;-69
2023/07/21 03:12:28;;;;;;;6.22;3.00;;;;;;;;;;4934676;29;20040;-70
2023/07/21 03:14:54;;;;;;;6.20;3.67;;;14.30;99.90;;;;;;4935464;29;20043;-69
2023/07/21 03:17:20;;;;;;;5.25;3.90;;;;;;;;;;4934272;29;20039;-69
2023/07/21 03:19:48;;;;;;;6.50;3.78;;;;;;;;;;4935268;29;20048;-70
2023/07/21 03:22:16;;;;;;;4.68;3.08;;;14.40;99.90;;;;;;4934318;29;20523;-69
2023/07/21 03:24:41;;;;;;;4.90;3.17;;;14.20;99.90;;;;;;4934196;29;20091;-69
2023/07/21 03:27:07;;;;;;;5.20;3.30;;;14.20;99.90;;;;;;4935238;29;20403;-69
2023/07/21 03:29:33;;;;;;;9.13;3.95;;;;;;;;;;4949732;29;20058;-69
2023/07/21 03:31:59;;;;;;;4.60;2.90;;;14.30;99.90;;;;;;4934138;29;20563;-69
2023/07/21 03:34:24;;;;;;;5.15;2.55;;;14.30;99.90;;;;;;4934050;29;20047;-69
2023/07/21 03:36:52;;;;;;;4.18;3.08;;;14.10;99.90;;;;;;4950167;29;20411;-69
2023/07/21 03:39:18;;;;;;;5.05;3.20;;;14.20;99.90;;;;;;4934925;29;20499;-69
2023/07/21 03:41:44;;;;;;;4.38;3.10;;;14.20;99.90;;;;;;4934169;29;20135;-69
2023/07/21 03:44:10;;;;;;;4.18;3.20;;;14.20;99.90;;;;;;4949729;28;20052;-69
2023/07/21 03:46:36;;;;;;;5.80;3.55;;;14.00;99.90;;;;;;4933760;29;20043;-69
2023/07/21 03:49:02;;;;;;;5.82;3.08;;;14.20;99.90;;;;;;4933379;29;20054;-69
2023/07/21 03:51:27;;;;;;;5.80;2.92;;;14.10;99.90;;;;;;4933709;29;20031;-69
2023/07/21 03:53:53;;;;;;;5.38;2.63;;;14.30;99.90;;;;;;4933349;29;20059;-69
2023/07/21 03:56:19;;;;;;;5.43;3.08;;;14.30;99.90;;;;;;4949558;29;20036;-69
2023/07/21 03:58:44;;;;;;;6.47;3.13;;;14.20;99.90;;;;;;4933708;29;20043;-69
2023/07/21 04:01:10;;;;;;;6.75;3.47;;;14.00;99.90;;;;;;4933649;29;20131;-69
2023/07/21 04:03:36;;;;;;;6.25;2.67;;;;;;;;;;4918044;29;20035;-69
2023/07/21 04:06:08;;;;;;;5.22;3.00;;;14.20;99.90;;;;;;4933366;29;20040;-69
2023/07/21 04:08:35;;;;;;;4.20;2.83;;;14.30;99.90;;;;;;4933418;29;20083;-69
2023/07/21 04:11:01;;;;;;;6.90;2.90;;;14.00;99.90;;;;;;4933325;29;20046;-70
2023/07/21 04:13:26;;;;;;;4.90;2.67;;;14.10;99.90;;;;;;4933368;29;20043;-69
2023/07/21 04:15:53;;;;;;;4.05;3.05;;;;;;;;;;4949629;29;20038;-69
2023/07/21 04:18:19;;;;;;;5.22;2.75;;;;;;;;;;4935050;29;20163;-69
2023/07/21 04:20:44;;;;;;;6.13;2.95;;;14.10;99.90;;;;;;4933171;29;20094;-69
2023/07/21 04:23:10;;;;;;;7.13;3.33;;;14.30;99.90;;;;;;4934678;29;20514;-69
2023/07/21 04:25:35;;;;;;;3.80;2.80;;;14.20;99.90;;;;;;4933153;29;20075;-69
2023/07/21 04:28:05;;;;;;;4.97;2.92;;;14.30;99.90;;;;;;4933570;29;20130;-69
2023/07/21 04:30:31;;;;;;;4.30;2.60;;;14.30;99.90;;;;;;4933037;29;20071;-69
2023/07/21 04:32:58;;;;;;;4.80;2.88;;;14.30;99.90;;;;;;4933371;29;20156;-69
2023/07/21 04:35:24;;;;;;;6.43;3.08;;;14.20;99.90;;;;;;4933337;29;20048;-70
2023/07/21 04:37:50;;;;;;;5.65;3.15;;;;;;;;;;4933463;29;20039;-69
2023/07/21 04:40:17;;;;;;;6.63;3.05;;;;;;;;;;4934033;29;20046;-70
2023/07/21 04:42:44;;;;;;;3.95;2.90;;;14.50;99.90;;;;;;4933358;29;20075;-70
2023/07/21 04:45:11;;;;;;;4.68;2.65;;;14.50;99.90;;;;;;4934657;29;20051;-68
2023/07/21 04:47:38;;;;;;;4.78;2.88;;;14.60;99.90;;;;;;4933198;29;20060;-69
2023/07/21 04:50:05;;;;;;;4.85;2.92;;;14.60;99.90;;;;;;4934093;29;20047;-69
2023/07/21 04:52:30;;;;;;;3.22;2.50;;;14.50;99.90;;;;;;4933236;29;20380;-69
2023/07/21 04:54:56;;;;;;;6.13;3.03;;;;;;;;;;4934367;29;20043;-69
2023/07/21 04:57:22;;;;;;;5.50;2.50;;;;;;;;;;4933045;29;20496;-70
2023/07/21 04:59:48;;;;;;;4.70;2.75;;;14.70;99.90;;;;;;4934080;29;20040;-69
2023/07/21 05:02:14;;;;;;;5.50;2.88;;;14.60;99.90;;;;;;4933189;29;20427;-69
2023/07/21 05:04:39;;;;;;;4.00;2.75;;;14.80;99.90;;;;;;4934058;29;20040;-69
2023/07/21 05:07:08;;;;;;;3.03;2.53;;;;;;;;;;4936571;29;20031;-69
2023/07/21 05:09:34;;;;;;;9.07;3.28;;;14.80;99.90;;;;;;4952383;29;20495;-69
2023/07/21 05:12:01;;;;;;;4.85;2.55;;;14.80;99.90;;;;;;4936927;29;20035;-69
2023/07/21 05:14:26;;;;;;;3.13;2.55;;;14.80;99.90;;;;;;4936834;29;20399;-69
2023/07/21 05:16:52;;;;;;;5.65;3.08;;;14.90;99.90;;;;;;4936500;29;20040;-69
2023/07/21 05:19:17;;;;;;;7.38;3.03;;;14.80;99.90;;;;;;4936422;29;20044;-69
2023/07/21 05:21:44;;;;;;;6.97;3.20;;;15.10;99.90;;;;;;4936327;29;20050;-69
2023/07/21 05:24:10;;;;;;;4.25;3.13;;;15.10;99.90;;;;;;4936380;29;20047;-69
2023/07/21 05:26:36;;;;;;;5.25;3.28;;;;;;;;;;4936630;29;20048;-69
2023/07/21 05:29:03;;;;;;;4.78;3.03;;;15.00;99.90;;;;;;4968183;28;20048;-69
2023/07/21 05:31:30;;;;;;;6.20;3.20;;;15.20;99.90;;;;;;4936562;29;20040;-69
2023/07/21 05:33:55;;;;;;;6.88;3.22;;;15.20;99.90;;;;;;4936259;29;20051;-69
2023/07/21 05:36:21;;;;;;;7.10;3.65;;;15.40;99.90;;;;;;4935998;29;20110;-69
2023/07/21 05:38:47;;;;;;;4.45;2.95;;;15.50;99.90;;;;;;4936398;29;20051;-69
2023/07/21 05:41:12;;;;;;;5.65;2.67;;;15.50;99.90;;;;;;4935894;29;20535;-69
2023/07/21 05:43:38;;;;;;;8.52;3.05;;;;;;;;;;4936021;29;20043;-70
2023/07/21 05:46:06;;;;;;;5.03;3.03;;;15.70;99.90;;;;;;4968087;28;20074;-69
2023/07/21 05:48:32;;;;;;;4.38;2.35;;;15.90;99.90;;;;;;4937184;29;20048;-69
2023/07/21 05:50:58;;;;;;;4.85;2.90;;;15.90;99.90;;;;;;4935787;29;20049;-69
2023/07/21 05:53:24;;;;;;;4.68;3.15;;;16.20;99.90;;;;;;4935918;29;20127;-69
2023/07/21 05:55:50;;;;;;;6.55;2.83;;;16.20;99.90;;;;;;4935922;29;20090;-69
2023/07/21 05:58:18;;;;;;;3.53;2.72;;;16.30;99.90;;;;;;4936086;29;20047;-69
2023/07/21 06:00:45;;;;;;;5.55;2.85;;;16.40;99.90;;;;;;4935573;29;20052;-69
2023/07/21 06:03:10;;;;;;;4.57;2.45;;;16.40;99.90;;;;;;4935789;29;20122;-69
2023/07/21 06:05:37;;;;;;;5.85;2.25;;;16.60;99.90;;;;;;4935392;29;20139;-69
2023/07/21 06:08:06;;;;;;;6.57;2.55;;;16.70;99.90;;;;;;4935845;29;20040;-69
2023/07/21 06:10:32;;;;;;;5.88;2.22;;;16.70;99.90;;;;;;4935376;29;20503;-69
2023/07/21 06:12:58;;;;;;;4.90;1.98;;;16.70;99.90;;;;;;4936895;29;20040;-70
2023/07/21 06:15:26;;;;;;;6.15;2.58;;;16.90;99.90;;;;;;4936648;29;20121;-69
2023/07/21 06:17:52;;;;;;;5.40;2.13;;;17.20;99.90;;;;;;4936773;29;20075;-70
2023/07/21 06:20:24;;;;;;;5.32;2.03;;;17.40;99.90;;;;;;4935104;29;20054;-69
2023/07/21 06:22:51;;;;;;;4.70;2.42;;;17.30;99.90;;;;;;4935528;29;20535;-69
2023/07/21 06:25:18;;;;;;;4.10;1.92;;;17.60;99.90;;;;;;4935209;29;20126;-70
2023/07/21 06:27:46;;;;;;;3.63;2.17;;;17.60;99.90;;;;;;4935430;29;20074;-69
2023/07/21 06:30:13;;;;;;;5.68;2.05;;;17.70;99.90;;;;;;4935239;29;20448;-70
2023/07/21 06:32:40;;;;;;;8.18;2.13;;;17.70;99.90;;;;;;4935398;29;20044;-70
2023/07/21 06:35:07;;;;;;;9.02;2.00;;;18.10;99.90;;;;;;4935104;29;20071;-70
2023/07/21 06:37:33;;;;;;;5.10;1.90;;;18.00;99.90;;;;;;4935337;29;20047;-70
2023/07/21 06:40:01;;;;;;;2.85;1.60;;;18.30;99.90;;;;;;4934826;29;20542;-70
2023/07/21 06:42:27;;;;;;;2.90;1.65;;;18.20;99.90;;;;;;4935082;29;20511;-70
2023/07/21 06:44:52;;;;;;;3.05;1.90;;;18.80;99.90;;;;;;4934932;29;20128;-70
2023/07/21 06:47:19;;;;;;;4.72;1.52;;;18.70;99.90;;;;;;4936042;29;20444;-70
2023/07/21 06:49:45;;;;;;;3.08;1.25;;;18.80;99.90;;;;;;4935855;29;20050;-70
2023/07/21 06:52:11;;;;;;;1.58;1.20;;;18.70;99.90;;;;;;4934898;29;20503;-70
2023/07/21 06:54:38;;;;;;;2.17;1.30;;;18.90;99.90;;;;;;4935156;29;20046;-70
2023/07/21 06:57:05;;;;;;;4.85;1.60;;;19.30;99.90;;;;;;4935174;29;20120;-70
2023/07/21 06:59:30;;;;;;;3.33;1.42;;;19.20;99.90;;;;;;4934556;29;20047;-70
2023/07/21 07:01:57;;;;;;;3.17;2.00;;;19.10;99.90;;;;;;4936077;29;20040;-70
2023/07/21 07:04:23;;;;;;;1.30;1.10;;;19.10;99.90;;;;;;4966793;28;20040;-69
2023/07/21 07:06:48;;;;;;;4.30;1.73;;;19.40;99.90;;;;;;4934513;29;20040;-69
2023/07/21 07:09:14;;;;;;;3.00;1.70;;;19.40;99.90;;;;;;4934297;29;20048;-70
2023/07/21 07:11:40;;;;;;;2.80;1.92;;;19.40;99.90;;;;;;4934547;29;20059;-69
2023/07/21 07:14:06;;;;;;;2.97;2.08;;;19.60;99.90;;;;;;4934752;29;20040;-69
2023/07/21 07:16:31;;;;;;;3.85;2.00;;;19.60;99.90;;;;;;4934861;29;20144;-69
2023/07/21 07:18:57;;;;;;;4.80;2.22;;;20.00;99.90;;;;;;4934698;29;20518;-69
2023/07/21 07:21:22;;;;;;;3.28;2.05;;;20.20;99.90;;;;;;4934690;29;20518;-70
2023/07/21 07:23:48;;;;;;;2.60;1.80;;;20.00;99.90;;;;;;4950508;29;20130;-69
2023/07/21 07:26:13;;;;;;;3.88;2.08;;;20.00;99.90;;;;;;4934777;29;20043;-70
2023/07/21 07:28:39;;;;;;;2.25;1.88;;;20.00;99.90;;;;;;4933776;29;20111;-70
2023/07/21 07:31:06;;;;;;;5.97;2.30;;;20.10;99.90;;;;;;4934253;29;20036;-70
2023/07/21 07:33:32;;;;;;;2.35;1.92;;;19.90;99.90;;;;;;4934139;29;20500;-70
2023/07/21 07:35:59;;;;;;;4.53;2.47;;;20.20;99.90;;;;;;4934365;29;20050;-70
2023/07/21 07:38:27;;;;;;;6.20;2.22;;;19.70;99.90;;;;;;4935319;29;20056;-69
2023/07/21 07:40:53;;;;;;;3.75;1.70;;;19.70;99.90;;;;;;4933941;29;20098;-70
2023/07/21 07:43:18;;;;;;;1.42;1.33;;;19.90;99.90;;;;;;4933909;29;20134;-70
2023/07/21 07:45:45;;;;;;;1.20;1.02;;;19.80;99.90;;;;;;4933749;29;20143;-70
2023/07/21 07:48:11;;;;;;;1.55;1.13;;;19.80;99.90;;;;;;4934226;29;20079;-70
2023/07/21 07:50:41;;;;;;;4.70;1.67;;;19.90;99.90;;;;;;4933665;29;20059;-70
2023/07/21 07:53:08;;;;;;;2.40;1.50;;;19.80;99.90;;;;;;4935201;29;20035;-70
2023/07/21 07:55:41;;;;;;;2.40;1.55;;;19.60;99.90;;;;;;4933641;29;20053;-70
2023/07/21 07:58:08;;;;;;;4.63;1.80;;;19.90;99.90;;;;;;4933687;29;20048;-70
2023/07/21 08:00:36;;;;;;;2.60;1.73;;;20.10;99.90;;;;;;4934928;29;20058;-70
2023/07/21 08:03:06;;;;;;;2.70;1.40;;;20.10;99.90;;;;;;4933900;29;20099;-70
2023/07/21 08:05:33;;;;;;;2.20;2.00;;;20.50;99.90;;;;;;4966368;28;20157;-69
2023/07/21 08:08:00;;;;;;;2.67;1.60;;;20.30;99.90;;;;;;4933868;29;20040;-69
2023/07/21 08:10:29;;;;;;;3.38;1.70;;;20.40;99.90;;;;;;4934566;29;20047;-69
2023/07/21 08:12:59;;;;;;;5.10;1.30;;;20.70;99.90;;;;;;4933948;29;20098;-70
2023/07/21 08:15:28;;;;;;;3.08;1.50;;;20.60;99.90;;;;;;4933566;29;20050;-70
2023/07/21 08:17:54;;;;;;;2.45;1.00;;;20.80;99.90;;;;;;4933460;29;20039;-69
2023/07/21 08:20:20;;;;;;;1.88;1.00;;;21.10;99.90;;;;;;4965113;28;20035;-70
2023/07/21 08:22:47;;;;;;;2.83;0.82;;;21.20;99.90;;;;;;4933365;29;20048;-69
2023/07/21 08:25:12;;;;;;;1.35;0.95;;;21.50;99.90;;;;;;4949199;29;20044;-70
2023/07/21 08:27:38;;;;;;;1.10;1.00;;;21.60;99.90;;;;;;4933130;29;20131;-70
2023/07/21 08:30:04;;;;;;;1.00;0.70;;;21.20;99.90;;;;;;4917458;29;20050;-70
2023/07/21 08:32:31;;;;;;;1.35;0.75;;;21.10;99.90;;;;;;4933329;29;20080;-70
2023/07/21 08:34:56;;;;;;;1.00;0.68;;;21.30;99.90;;;;;;4933179;29;20090;-69
2023/07/21 08:37:22;;;;;;;4.45;0.95;;;21.50;99.90;;;;;;4933245;29;20126;-70
2023/07/21 08:39:48;;;;;;;3.13;1.00;;;21.70;99.90;;;;;;4935701;29;20127;-70
2023/07/21 08:42:14;;;;;;;1.75;0.90;;;21.60;99.90;;;;;;4937255;29;20080;-70
2023/07/21 08:44:40;;;;;;;1.80;0.90;;;21.70;99.90;;;;;;4937159;29;20066;-70
2023/07/21 08:47:06;;;;;;;1.70;0.77;;;21.80;99.90;;;;;;4937178;29;20036;-70
2023/07/21 08:49:32;;;;;;;2.17;1.25;;;21.90;99.90;;;;;;4936716;29;20039;-70
2023/07/21 08:51:58;;;;;;;2.22;0.80;;;21.70;99.90;;;;;;4937242;29;20126;-70
2023/07/21 08:54:24;;;;;;;2.13;1.02;;;21.90;99.90;;;;;;4936936;29;20126;-70
2023/07/21 08:56:50;;;;;;;1.63;1.05;;;21.90;99.90;;;;;;4936901;29;20032;-70
2023/07/21 08:59:18;;;;;;;1.55;1.10;;;21.80;99.90;;;;;;4936612;29;20044;-70
2023/07/21 09:01:44;;;;;;;4.93;1.30;;;21.80;99.90;;;;;;4937087;29;20455;-70
2023/07/21 09:04:21;;;;;;;2.92;1.10;;;21.90;99.90;;;;;;4952665;29;20043;-70
2023/07/21 09:06:58;;;;;;;1.73;1.13;;;22.00;99.90;;;;;;4936582;29;20051;-70
2023/07/21 09:09:25;;;;;;;2.67;1.02;;;21.60;99.90;;;;;;4938021;29;20043;-70
2023/07/21 09:12:03;;;;;;;1.23;0.90;;;21.80;99.90;;;;;;4936772;29;20043;-70
2023/07/21 09:14:35;;;;;;;1.40;0.88;;;22.10;99.90;;;;;;4938366;29;20047;-70
2023/07/21 09:17:04;;;;;;;1.17;0.93;;;22.00;99.90;;;;;;4936613;29;20051;-70
2023/07/21 09:19:34;;;;;;;1.98;0.90;;;22.30;99.90;;;;;;4936139;29;20591;-70
2023/07/21 09:22:00;;;;;;;1.80;0.85;;;22.70;99.90;;;;;;4936566;29;20048;-70
2023/07/21 09:24:25;;;;;;;1.02;0.68;;;22.80;99.90;;;;;;4936786;29;20050;-70
2023/07/21 09:27:09;;;;;;;1.00;0.90;;;22.40;99.90;;;;;;4936477;29;20083;-70
2023/07/21 09:29:35;;;;;;;0.95;0.82;;;21.80;99.90;;;;;;4936121;29;20543;-70
2023/07/21 09:32:01;;;;;;;2.33;0.90;;;22.30;99.90;;;;;;4936371;29;20119;-70
2023/07/21 09:34:26;;;;;;;2.20;1.08;;;22.20;99.90;;;;;;4936659;29;20078;-70
2023/07/21 09:36:52;;;;;;;1.50;1.05;;;22.30;99.90;;;;;;4936590;29;20036;-70
2023/07/21 09:39:17;;;;;;;1.27;0.90;;;22.00;99.90;;;;;;4936304;29;20039;-70
2023/07/21 09:41:45;;;;;;;0.93;0.90;;;21.90;99.90;;;;;;4936514;29;20056;-71
2023/07/21 09:44:12;;;;;;;2.10;1.30;;;21.70;99.90;;;;;;4936454;29;20085;-70
2023/07/21 09:46:38;;;;;;;3.83;1.25;;;21.60;99.90;;;;;;4935949;29;20163;-70
2023/07/21 09:49:04;;;;;;;2.53;1.60;;;21.60;99.90;;;;;;4935725;29;20079;-69
2023/07/21 09:51:31;;;;;;;4.30;1.83;;;21.30;99.90;;;;;;4935335;29;20074;-70
2023/07/21 09:54:03;;;;;;;2.45;2.10;;;21.20;99.90;;;;;;4937142;29;20044;-69
2023/07/21 09:56:30;;;;;;;2.90;2.58;;;21.10;99.90;;;;;;4920061;29;20040;-68
2023/07/21 09:59:00;;;;;;;5.57;3.00;;;21.30;99.90;;;;;;4935493;29;20120;-68
2023/07/21 10:01:28;;;;;;;3.55;2.10;;;21.20;99.90;;;;;;4936410;29;20122;-69
2023/07/21 10:03:54;;;;;;;4.75;2.50;;;21.50;99.90;;;;;;4936284;29;20047;-69
2023/07/21 10:06:22;;;;;;;2.75;1.88;;;21.20;99.90;;;;;;4936403;29;20057;-70
2023/07/21 10:08:50;;;;;;;2.60;2.40;;;21.60;99.90;;;;;;4935791;29;20387;-69
2023/07/21 10:11:16;;;;;;;2.47;2.10;;;21.40;99.90;;;;;;4935596;29;20106;-69
2023/07/21 10:13:46;;;;;;;2.88;2.30;;;21.40;99.90;;;;;;4935542;29;20495;-69
2023/07/21 10:16:13;;;;;;;3.05;2.00;;;21.80;99.90;;;;;;4936739;29;20500;-69
2023/07/21 10:19:01;;;;;;;5.25;2.15;;;21.60;99.90;;;;;;4937669;29;20046;-68
2023/07/21 10:21:31;;;;;;;2.13;1.67;;;21.90;99.90;;;;;;4937135;29;20075;-69
2023/07/21 10:24:01;;;;;;;2.33;1.77;;;22.10;99.90;;;;;;4937820;29;20046;-69
2023/07/21 10:26:29;;;;;;;2.95;1.55;;;21.90;99.90;;;;;;4935859;29;20054;-69
2023/07/21 10:29:15;;;;;;;2.10;1.60;;;22.20;99.90;;;;;;4935527;29;20078;-69
2023/07/21 10:31:53;;;;;;;2.10;1.73;;;22.50;99.90;;;;;;4935668;29;20062;-69
2023/07/21 10:34:26;;;;;;;4.03;1.75;;;22.80;99.90;;;;;;4935183;29;20159;-69
2023/07/21 10:36:51;;;;;;;2.00;1.05;;;22.10;99.90;;;;;;4967311;28;20043;-70
2023/07/21 10:39:23;;;;;;;1.52;1.00;;;22.30;99.90;;;;;;4934885;29;20044;-70
2023/07/21 10:41:51;;;;;;;1.30;0.98;;;22.40;99.90;;;;;;4935184;29;20058;-69
2023/07/21 10:44:17;;;;;;;2.92;1.50;;;22.10;99.90;;;;;;4935102;29;20047;-70
2023/07/21 10:46:45;;;;;;;1.90;1.13;;;22.30;99.90;;;;;;4936153;29;20039;-69
2023/07/21 10:49:13;;;;;;;2.92;1.40;;;22.30;99.90;;;;;;4934571;29;20070;-70
2023/07/21 10:51:42;;;;;;;1.95;1.13;;;22.40;99.90;;;;;;4936344;29;20039;-71
2023/07/21 10:54:08;;;;;;;1.90;1.50;;;22.60;99.90;;;;;;4935093;29;20039;-69
2023/07/21 10:56:51;;;;;;;3.40;2.05;;;23.00;99.90;;;;;;4934848;29;20086;-71
2023/07/21 10:59:18;;;;;;;2.75;1.80;;;23.20;99.90;;;;;;4934453;29;20047;-70
2023/07/21 11:01:50;;;;;;;6.03;1.85;;;22.80;99.90;;;;;;4918476;29;20079;-70
2023/07/21 11:04:17;;;;;;;3.40;1.60;;;22.70;99.90;;;;;;4934683;29;20415;-71
2023/07/21 11:06:49;;;;;;;3.42;1.80;;;22.30;99.90;;;;;;4935737;29;20503;-71
2023/07/21 11:09:16;;;;;;;2.38;1.58;;;22.30;99.90;;;;;;4935774;29;20063;-70
2023/07/21 11:11:45;;;;;;;5.22;2.13;;;22.40;99.90;;;;;;4934497;29;20566;-70
2023/07/21 11:14:19;;;;;;;4.55;2.17;;;22.30;99.90;;;;;;4934467;29;20060;-70
2023/07/21 11:17:02;;;;;;;4.63;2.17;;;22.10;99.90;;;;;;4918559;29;20050;-71
2023/07/21 11:19:30;;;;;;;3.85;2.08;;;22.40;99.90;;;;;;4934128;29;20079;-71
2023/07/21 11:21:56;;;;;;;4.80;1.67;;;22.60;99.90;;;;;;4935609;29;20039;-70
2023/07/21 11:24:29;;;;;;;2.58;2.35;;;22.50;99.90;;;;;;4934191;29;20076;-71
2023/07/21 11:26:58;;;;;;;3.53;1.77;;;22.60;99.90;;;;;;4934608;29;20040;-71
2023/07/21 11:29:26;;;;;;;3.90;2.42;;;22.30;99.90;;;;;;4934178;29;20455;-69
2023/07/21 11:31:52;;;;;;;3.40;2.30;;;22.00;99.90;;;;;;4934191;29;20055;-71
2023/07/21 11:34:31;;;;;;;5.30;2.90;;;22.10;99.90;;;;;;4934212;29;20221;-71
2023/07/21 11:36:58;;;;;;;3.47;2.60;;;22.50;99.90;;;;;;4934107;29;20503;-71
2023/07/21 11:39:27;;;;;;;4.03;2.95;;;22.20;99.90;;;;;;4933962;29;20079;-71
2023/07/21 11:41:55;;;;;;;7.18;3.28;;;22.30;99.90;;;;;;4950192;29;20055;-71
2023/07/21 11:44:30;;;;;;;7.43;3.13;;;22.50;99.90;;;;;;4934147;29;20127;-71
2023/07/21 11:46:55;;;;;;;4.03;3.58;;;23.10;99.90;;;;;;4934192;29;20051;-71
2023/07/21 11:49:23;;;;;;;5.68;3.03;;;23.10;99.90;;;;;;4965777;28;20070;-68
2023/07/21 11:51:51;;;;;;;5.90;3.10;;;23.40;99.90;;;;;;4919477;29;20074;-71
2023/07/21 11:54:19;;;;;;;4.03;2.35;;;23.40;99.90;;;;;;4938732;29;20039;-70
2023/07/21 11:56:45;;;;;;;3.20;2.60;;;22.40;99.90;;;;;;4917935;29;20075;-71
2023/07/21 11:59:11;;;;;;;3.13;2.67;;;22.80;99.90;;;;;;4933407;29;20134;-71
2023/07/21 12:01:38;;;;;;;2.92;2.50;;;22.60;99.90;;;;;;4935113;29;20043;-71
2023/07/21 12:04:04;;;;;;;4.85;2.63;;;22.40;99.90;;;;;;4934103;29;20479;-71
2023/07/21 12:06:30;;;;;;;6.38;2.75;;;22.10;99.90;;;;;;4934880;29;20040;-70
2023/07/21 12:08:55;;;;;;;4.90;2.88;;;21.80;99.90;;;;;;4933475;29;20047;-70
2023/07/21 12:11:21;;;;;;;7.97;3.30;;;21.20;99.90;;;;;;4933578;29;20067;-69
2023/07/21 12:13:47;;;;;;;6.15;2.83;;;20.50;99.90;;;;;;4933178;29;20039;-70
2023/07/21 12:16:13;;;;;;;8.98;4.10;;;20.50;99.90;;;;;;4933392;29;20040;-72
2023/07/21 12:18:41;;;;;;;9.75;4.05;;;19.10;99.90;;;;;;4933252;29;20099;-71
2023/07/21 12:21:12;;;;;;;5.15;2.50;;;;;;;;;;4933374;29;20048;-71
2023/07/21 12:23:37;;;;;;;7.95;2.78;;;17.80;99.90;;;;;;4933551;29;20455;-70
2023/07/21 12:26:03;;;;;;;6.28;2.58;;;17.60;99.90;;;;;;4933372;29;20043;-71
2023/07/21 12:28:29;;;;;;;5.10;2.17;;;17.50;99.90;;;;;;4933402;29;20130;-70
2023/07/21 12:30:54;;;;;;;2.97;1.88;;;17.20;99.90;;;;;;4917461;29;20047;-71
2023/07/21 12:33:20;;;;;;;3.97;2.55;;;17.00;99.90;;;;;;4933227;29;20043;-70
2023/07/21 12:35:46;;;;;;;3.97;2.20;;;16.90;99.90;;;;;;4933408;29;20095;-69
2023/07/21 12:38:12;;;;;;;3.90;2.17;;;16.90;99.90;;;;;;4933215;29;20136;-70
2023/07/21 12:40:39;;;;;;;2.20;1.50;;;16.90;99.90;;;;;;4933211;29;20046;-69
2023/07/21 12:43:05;;;;;;;2.25;1.70;;;17.00;99.90;;;;;;4933137;29;20071;-69
2023/07/21 12:45:31;;;;;;;3.72;2.25;;;17.60;99.90;;;;;;4934266;29;20044;-70
2023/07/21 12:47:57;;;;;;;2.22;1.90;;;17.60;99.90;;;;;;4933094;29;20566;-70
2023/07/21 12:50:22;;;;;;;2.47;1.67;;;17.20;99.90;;;;;;4932785;29;20036;-70
2023/07/21 12:52:48;;;;;;;1.85;1.30;;;17.80;99.90;;;;;;4933106;29;20412;-70